APL Jeddah — S6HU4 — position and weather

sailwx.info

Track history (hours):
 
Tides and Currents Weather Stations Pressure Air Temp Water Temp Dewpoint Dewpoint Depression Visibility Wind Speed Wind Dir Waves Ship Positions

APL Jeddah

Last reported at 2018-Oct-18 02:34 UTC. Time now 2018-Oct-19 08:42 UTC.
Position N 22°12' E 120°21'.

Length 207 m; draft 9.4 m.

Type: Cargo ship. MMSI: 563478538.

Date/timePositionNaut miles runAvg speedWind from/ knotsBaromVisibWave heightAir tempDewpointWater temp
2018-Oct-18 02:34N 22°12' E 120°21'118.2
2018-Oct-18 02:30N 22°13' E 120°20'817.9
2018-Oct-18 02:03N 22°19' E 120°15'118.9
2018-Oct-18 02:00N 22°20' E 120°14'917.7
2018-Oct-18 01:30N 22°28' E 120°13'612.8
2018-Oct-18 01:03N 22°33' E 120°17'111.2
2018-Oct-18 01:00N 22°33' E 120°17'2 4.0
2018-Oct-18 00:30N 22°34' E 120°19'0 0.0
2018-Oct-18 00:01N 22°34' E 120°19'0 0.0
2018-Oct-17 23:58N 22°34' E 120°19'0 0.0
2018-Oct-17 23:28N 22°34' E 120°19'0 0.0
2018-Oct-17 23:03N 22°34' E 120°19'0 0.1
2018-Oct-17 23:00N 22°34' E 120°19'0 0.0
2018-Oct-17 22:30N 22°34' E 120°19'0 0.0
2018-Oct-17 22:03N 22°34' E 120°19'0 0.0
2018-Oct-17 22:00N 22°34' E 120°19'0 0.0
2018-Oct-17 21:31N 22°34' E 120°19'0 0.0
2018-Oct-17 21:03N 22°34' E 120°19'0 0.1
2018-Oct-17 21:00N 22°34' E 120°19'0 0.0
2018-Oct-17 20:30N 22°34' E 120°19'0 0.0
2018-Oct-17 20:03N 22°34' E 120°19'0 0.1
2018-Oct-17 20:00N 22°34' E 120°19'0 0.0
2018-Oct-17 19:30N 22°34' E 120°19'0 0.0
2018-Oct-17 19:03N 22°34' E 120°19'0 0.0
2018-Oct-17 19:00N 22°34' E 120°19'0 0.0
2018-Oct-17 18:30N 22°34' E 120°19'0 0.0
2018-Oct-17 18:03N 22°34' E 120°19'0 0.0
2018-Oct-17 18:00N 22°34' E 120°19'1 1.1
2018-Oct-17 17:30N 22°33' E 120°19'3 7.0
2018-Oct-17 17:04N 22°32' E 120°16'0 2.3
2018-Oct-17 17:00N 22°32' E 120°15'3 7.0
2018-Oct-17 16:30N 22°31' E 120°12'4 9.0
2018-Oct-17 16:03N 22°29' E 120°08'111.1
2018-Oct-17 16:00N 22°28' E 120°08'815.4
2018-Oct-17 15:28N 22°23' E 120°02'  
Track history (hours):
 
Tides and Currents Weather Stations Pressure Air Temp Water Temp Dewpoint Dewpoint Depression Visibility Wind Speed Wind Dir Waves Ship Positions

APL Jeddah

Last reported at 2018-Oct-18 02:34 UTC. Time now 2018-Oct-19 08:42 UTC.
Position N 22°12' E 120°21'.

Length 207 m; draft 9.4 m.

Type: Cargo ship. MMSI: 563478538.

Date/timePositionNaut miles runAvg speedWind from/ knotsBaromVisibWave heightAir tempDewpointWater temp
2018-Oct-18 02:34N 22°12' E 120°21'118.2
2018-Oct-18 02:30N 22°13' E 120°20'817.9
2018-Oct-18 02:03N 22°19' E 120°15'118.9
2018-Oct-18 02:00N 22°20' E 120°14'917.7
2018-Oct-18 01:30N 22°28' E 120°13'612.8
2018-Oct-18 01:03N 22°33' E 120°17'111.2
2018-Oct-18 01:00N 22°33' E 120°17'2 4.0
2018-Oct-18 00:30N 22°34' E 120°19'0 0.0
2018-Oct-18 00:01N 22°34' E 120°19'0 0.0
2018-Oct-17 23:58N 22°34' E 120°19'0 0.0
2018-Oct-17 23:28N 22°34' E 120°19'0 0.0
2018-Oct-17 23:03N 22°34' E 120°19'0 0.1
2018-Oct-17 23:00N 22°34' E 120°19'0 0.0
2018-Oct-17 22:30N 22°34' E 120°19'0 0.0
2018-Oct-17 22:03N 22°34' E 120°19'0 0.0
2018-Oct-17 22:00N 22°34' E 120°19'0 0.0
2018-Oct-17 21:31N 22°34' E 120°19'0 0.0
2018-Oct-17 21:03N 22°34' E 120°19'0 0.1
2018-Oct-17 21:00N 22°34' E 120°19'0 0.0
2018-Oct-17 20:30N 22°34' E 120°19'0 0.0
2018-Oct-17 20:03N 22°34' E 120°19'0 0.1
2018-Oct-17 20:00N 22°34' E 120°19'0 0.0
2018-Oct-17 19:30N 22°34' E 120°19'0 0.0
2018-Oct-17 19:03N 22°34' E 120°19'0 0.0
2018-Oct-17 19:00N 22°34' E 120°19'0 0.0
2018-Oct-17 18:30N 22°34' E 120°19'0 0.0
2018-Oct-17 18:03N 22°34' E 120°19'0 0.0
2018-Oct-17 18:00N 22°34' E 120°19'1 1.1
2018-Oct-17 17:30N 22°33' E 120°19'3 7.0
2018-Oct-17 17:04N 22°32' E 120°16'0 2.3
2018-Oct-17 17:00N 22°32' E 120°15'3 7.0
2018-Oct-17 16:30N 22°31' E 120°12'4 9.0
2018-Oct-17 16:03N 22°29' E 120°08'111.1
2018-Oct-17 16:00N 22°28' E 120°08'815.4
2018-Oct-17 15:28N 22°23' E 120°02'  

Dump ship's entire track history